Time;durP1;ratioP1;P1;durP2;ratioP2;P2;SDS_P1;SDS_P2;PMS_P1;PMS_P2;Temp;Humidity;BMP_temperature;BMP_pressure;BME280_temperature;BME280_humidity;BME280_pressure;Samples;Min_cycle;Max_cycle;Signal;HPM_P1;HPM_P2
2022/12/31 00:01:45;;;;;;;4.75;2.20;;;;;;;;;;4975111;28;20041;-75
2022/12/31 00:04:11;;;;;;;5.57;2.30;;;;;;;;;;4975175;28;20054;-72
2022/12/31 00:06:36;;;;;;;6.65;2.30;;;;;;;;;;4974096;28;20026;-71
2022/12/31 00:09:05;;;;;;;4.38;1.95;;;;;;;;;;4974989;28;20023;-71
2022/12/31 00:11:31;;;;;;;6.03;2.45;;;;;;;;;;4975298;28;20042;-72
2022/12/31 00:13:57;;;;;;;4.10;2.55;;;;;;;;;;4975239;28;20027;-71
2022/12/31 00:16:28;;;;;;;4.45;2.33;;;;;;;;;;4975177;28;20118;-71
2022/12/31 00:18:58;;;;;;;4.22;2.58;;;;;;;;;;4975125;28;20019;-72
2022/12/31 00:21:24;;;;;;;6.07;2.70;;;;;;;;;;4974965;28;20034;-72
2022/12/31 00:23:49;;;;;;;3.35;2.03;;;;;;;;;;4974784;28;20488;-71
2022/12/31 00:26:17;;;;;;;4.40;2.40;;;;;;;;;;4974830;28;20031;-71
2022/12/31 00:28:43;;;;;;;5.15;2.40;;;;;;;;;;4989782;28;20069;-71
2022/12/31 00:31:16;;;;;;;5.05;2.50;;;;;;;;;;4990192;28;20116;-70
2022/12/31 00:33:42;;;;;;;5.53;2.58;;;;;;;;;;4985495;28;20030;-70
2022/12/31 00:36:09;;;;;;;4.43;2.25;;;;;;;;;;4987509;28;20472;-70
2022/12/31 00:38:36;;;;;;;4.95;2.60;;;;;;;;;;4984490;28;20042;-72
2022/12/31 00:41:01;;;;;;;7.13;2.50;;;;;;;;;;4986483;28;20384;-71
2022/12/31 00:43:27;;;;;;;2.72;1.90;;;;;;;;;;4985542;28;20043;-71
2022/12/31 00:45:53;;;;;;;3.33;2.38;;;;;;;;;;4987515;28;20037;-69
2022/12/31 00:48:18;;;;;;;3.95;2.50;;;;;;;;;;4986961;28;20469;-71
2022/12/31 00:50:44;;;;;;;3.95;2.53;;;;;;;;;;4985275;28;20105;-70
2022/12/31 00:53:09;;;;;;;4.53;2.40;;;;;;;;;;4985039;28;20044;-71
2022/12/31 00:55:35;;;;;;;3.97;2.17;;;;;;;;;;4986789;28;20026;-70
2022/12/31 00:58:00;;;;;;;3.95;2.50;;;;;;;;;;4988548;28;20367;-71
2022/12/31 01:00:25;;;;;;;4.35;2.47;;;;;;;;;;5012849;28;20018;-70
2022/12/31 01:02:51;;;;;;;4.40;2.60;;;;;;;;;;4994151;28;20034;-71
2022/12/31 01:05:16;;;;;;;4.90;2.83;;;;;;;;;;5002874;28;20026;-70
2022/12/31 01:07:42;;;;;;;5.03;2.90;;;;;;;;;;5010033;28;20021;-70
2022/12/31 01:10:08;;;;;;;2.72;2.10;;;;;;;;;;4993056;28;20045;-70
2022/12/31 01:12:33;;;;;;;5.22;2.38;;;;;;;;;;5004097;28;20039;-70
2022/12/31 01:14:58;;;;;;;3.40;2.08;;;;;;;;;;5012541;28;20352;-70
2022/12/31 01:17:24;;;;;;;4.70;2.60;;;;;;;;;;4993714;28;20030;-70
2022/12/31 01:19:49;;;;;;;4.55;2.67;;;;;;;;;;4998680;28;20463;-69
2022/12/31 01:22:15;;;;;;;4.45;2.38;;;;;;;;;;5012463;28;20464;-70
2022/12/31 01:24:40;;;;;;;4.95;2.60;;;;;;;;;;4997820;28;20452;-71
2022/12/31 01:27:06;;;;;;;4.57;2.97;;;;;;;;;;4995706;28;20027;-70
2022/12/31 01:29:31;;;;;;;5.45;2.22;;;;;;;;;;5012421;28;20022;-70
2022/12/31 01:31:57;;;;;;;4.50;2.20;;;;;;;;;;5011986;28;20635;-70
2022/12/31 01:34:23;;;;;;;4.35;2.70;;;;;;;;;;4997165;28;20038;-70
2022/12/31 01:36:48;;;;;;;3.90;2.20;;;;;;;;;;5008270;28;20084;-71
2022/12/31 01:39:14;;;;;;;2.78;1.83;;;;;;;;;;4996911;28;20017;-70
2022/12/31 01:41:44;;;;;;;3.58;2.17;;;;;;;;;;5008576;28;20456;-68
2022/12/31 01:44:10;;;;;;;;;;;;;;;;;;4993278;28;20026;-68
2022/12/31 01:46:42;;;;;;;4.05;1.90;;;;;;;;;;5003701;28;19917;-68
2022/12/31 01:49:14;;;;;;;3.85;2.15;;;;;;;;;;5012279;28;20109;-68
2022/12/31 01:51:43;;;;;;;3.00;1.98;;;;;;;;;;4995307;28;20030;-68
2022/12/31 01:54:12;;;;;;;2.40;1.58;;;;;;;;;;5008111;28;20030;-68
2022/12/31 01:56:40;;;;;;;5.18;1.45;;;;;;;;;;4997511;28;20029;-68
2022/12/31 01:59:08;;;;;;;3.03;1.83;;;;;;;;;;5002147;28;20384;-68
2022/12/31 02:01:36;;;;;;;2.92;1.80;;;;;;;;;;5005289;28;20113;-70
2022/12/31 02:04:06;;;;;;;2.22;1.65;;;;;;;;;;4998639;28;20030;-70
2022/12/31 02:06:36;;;;;;;;;;;;;;;;;;4993195;28;20417;-70
2022/12/31 02:09:02;;;;;;;2.93;1.97;;;;;;;;;;5011999;28;19952;-70
2022/12/31 02:11:31;;;;;;;2.83;1.77;;;;;;;;;;5006306;28;20065;-70
2022/12/31 02:14:01;;;;;;;2.97;2.05;;;;;;;;;;4992573;28;20038;-70
2022/12/31 02:16:35;;;;;;;2.80;1.70;;;;;;;;;;5004365;28;20034;-70
2022/12/31 02:19:03;;;;;;;2.92;1.60;;;;;;;;;;5001997;28;20026;-71
2022/12/31 02:21:45;;;;;;;4.07;1.80;;;;;;;;;;5004954;28;20034;-70
2022/12/31 02:24:29;;;;;;;2.10;1.50;;;;;;;;;;4995104;28;20161;-71
2022/12/31 02:27:00;;;;;;;3.30;1.98;;;;;;;;;;5003083;28;20018;-70
2022/12/31 02:29:47;;;;;;;4.03;1.80;;;;;;;;;;5004314;28;20165;-71
2022/12/31 02:32:16;;;;;;;2.60;1.80;;;;;;;;;;5011790;28;20380;-71
2022/12/31 02:34:56;;;;;;;3.65;1.63;;;;;;;;;;5001877;28;20034;-70
2022/12/31 02:37:25;;;;;;;3.72;1.98;;;;;;;;;;4993002;28;20440;-70
2022/12/31 02:39:51;;;;;;;3.50;2.00;;;;;;;;;;5006378;28;20455;-70
2022/12/31 02:42:17;;;;;;;2.38;1.50;;;;;;;;;;4999813;28;20054;-70
2022/12/31 02:44:43;;;;;;;2.65;1.23;;;;;;;;;;4999508;28;20076;-71
2022/12/31 02:47:08;;;;;;;1.85;1.42;;;;;;;;;;5006838;28;20041;-71
2022/12/31 02:49:58;;;;;;;4.65;1.67;;;;;;;;;;5006801;28;20022;-69
2022/12/31 02:52:49;;;;;;;2.70;1.80;;;;;;;;;;4994655;28;20387;-70
2022/12/31 02:55:33;;;;;;;3.17;1.50;;;;;;;;;;5007367;28;20360;-70
2022/12/31 02:58:21;;;;;;;1.98;1.30;;;;;;;;;;5015288;28;20022;-71
2022/12/31 03:03:39;;;;;;;5.03;1.60;;;;;;;;;;4997093;28;20045;-71
2022/12/31 03:06:07;;;;;;;1.75;1.35;;;;;;;;;;5015207;28;20101;-71
2022/12/31 03:09:11;;;;;;;3.88;1.40;;;;;;;;;;5000231;28;20032;-70
2022/12/31 03:12:44;;;;;;;2.55;1.38;;;;;;;;;;5003390;28;20038;-70
2022/12/31 03:14:04;;;;;;;2.38;1.35;;;;;;;;;;4999604;28;20042;-71
2022/12/31 03:16:29;;;;;;;2.30;1.40;;;;;;;;;;5010591;28;20026;-69
2022/12/31 03:27:08;;;;;;;3.42;1.30;;;;;;;;;;4979389;28;20502;-70
2022/12/31 03:29:33;;;;;;;2.65;1.27;;;;;;;;;;4981540;28;20035;-69
2022/12/31 03:31:59;;;;;;;3.90;1.40;;;;;;;;;;4985368;28;20034;-70
2022/12/31 03:34:24;;;;;;;2.42;1.48;;;;;;;;;;4974168;28;20034;-70
2022/12/31 03:36:49;;;;;;;2.10;1.40;;;;;;;;;;4987445;28;20030;-71
2022/12/31 03:39:15;;;;;;;2.30;1.20;;;;;;;;;;4989889;28;20035;-70
2022/12/31 03:41:40;;;;;;;2.15;1.20;;;;;;;;;;4978246;28;20030;-70
2022/12/31 03:44:05;;;;;;;2.65;1.30;;;;;;;;;;4982813;28;20118;-70
2022/12/31 03:46:31;;;;;;;1.90;1.27;;;;;;;;;;4984845;28;20074;-69
2022/12/31 03:48:57;;;;;;;4.13;1.92;;;;;;;;;;4975864;28;20053;-70
2022/12/31 03:51:22;;;;;;;5.28;1.95;;;;;;;;;;4976058;28;20137;-70
2022/12/31 03:53:48;;;;;;;2.45;1.40;;;;;;;;;;4992607;28;20059;-70
2022/12/31 03:56:13;;;;;;;1.52;1.00;;;;;;;;;;4990399;28;20026;-70
2022/12/31 03:58:39;;;;;;;1.30;1.00;;;;;;;;;;4971855;28;20435;-71
2022/12/31 04:01:04;;;;;;;1.52;1.02;;;;;;;;;;4997728;28;20026;-70
2022/12/31 04:03:29;;;;;;;1.67;1.00;;;;;;;;;;5013980;28;20378;-70
2022/12/31 04:05:55;;;;;;;2.50;1.10;;;;;;;;;;5011278;28;20026;-71
2022/12/31 04:08:21;;;;;;;1.58;1.17;;;;;;;;;;4994961;28;20023;-70
2022/12/31 04:10:46;;;;;;;2.38;1.10;;;;;;;;;;5008845;28;20118;-70
2022/12/31 04:13:12;;;;;;;1.95;1.23;;;;;;;;;;5001498;28;20490;-70
2022/12/31 04:15:37;;;;;;;6.28;5.10;;;;;;;;;;5001502;28;20034;-70
2022/12/31 04:18:02;;;;;;;2.55;1.70;;;;;;;;;;5008789;28;20060;-70
2022/12/31 04:20:28;;;;;;;2.13;1.00;;;;;;;;;;5013589;28;20395;-69
2022/12/31 04:22:53;;;;;;;1.92;1.20;;;;;;;;;;4996482;28;20030;-70
2022/12/31 04:25:19;;;;;;;1.58;1.00;;;;;;;;;;4994000;28;20022;-70
2022/12/31 04:27:44;;;;;;;2.55;1.55;;;;;;;;;;5009427;28;20137;-70
2022/12/31 04:30:11;;;;;;;2.85;1.30;;;;;;;;;;5013208;28;20113;-70
2022/12/31 04:32:37;;;;;;;4.63;1.85;;;;;;;;;;5013354;28;20489;-70
2022/12/31 04:35:02;;;;;;;5.15;2.17;;;;;;;;;;5013269;28;20026;-70
2022/12/31 04:37:28;;;;;;;3.42;1.90;;;;;;;;;;4995795;28;20698;-69
2022/12/31 04:39:53;;;;;;;3.70;2.17;;;;;;;;;;5003403;28;20356;-70
2022/12/31 04:42:19;;;;;;;2.90;1.58;;;;;;;;;;4998800;28;20050;-70
2022/12/31 04:44:44;;;;;;;2.35;1.50;;;;;;;;;;5009110;28;20029;-71
2022/12/31 04:47:09;;;;;;;2.90;1.20;;;;;;;;;;4997394;28;20530;-71
2022/12/31 04:49:35;;;;;;;1.85;1.30;;;;;;;;;;5013365;28;20034;-71
2022/12/31 04:52:00;;;;;;;1.45;1.08;;;;;;;;;;5002823;28;20065;-71
2022/12/31 04:54:26;;;;;;;1.98;1.30;;;;;;;;;;4993668;28;20025;-71
2022/12/31 04:56:51;;;;;;;1.70;1.13;;;;;;;;;;5007396;28;20050;-71
2022/12/31 04:59:16;;;;;;;2.72;1.20;;;;;;;;;;5012689;28;20116;-70
2022/12/31 05:01:42;;;;;;;1.60;1.10;;;;;;;;;;5000624;28;20550;-71
2022/12/31 05:04:07;;;;;;;1.50;1.10;;;;;;;;;;4993397;28;20022;-71
2022/12/31 05:06:33;;;;;;;2.67;1.20;;;;;;;;;;5007027;28;20103;-71
2022/12/31 05:08:58;;;;;;;1.45;1.08;;;;;;;;;;5004220;28;20062;-71
2022/12/31 05:11:23;;;;;;;1.98;1.10;;;;;;;;;;5004077;28;20025;-71
2022/12/31 05:13:49;;;;;;;2.55;1.33;;;;;;;;;;4996409;28;20575;-71
2022/12/31 05:16:14;;;;;;;1.92;1.10;;;;;;;;;;5008646;28;20026;-70
2022/12/31 05:18:40;;;;;;;1.75;1.10;;;;;;;;;;4992905;28;20026;-69
2022/12/31 05:21:06;;;;;;;1.10;0.90;;;;;;;;;;5011063;28;20481;-69
2022/12/31 05:23:31;;;;;;;2.63;1.33;;;;;;;;;;4999543;28;20476;-70
2022/12/31 05:25:58;;;;;;;2.17;1.05;;;;;;;;;;4992823;28;20062;-70
2022/12/31 05:28:24;;;;;;;1.50;1.00;;;;;;;;;;5007011;28;20475;-70
2022/12/31 05:30:50;;;;;;;1.58;1.02;;;;;;;;;;5012308;28;20041;-70
2022/12/31 05:33:16;;;;;;;3.85;1.20;;;;;;;;;;5012608;28;20092;-69
2022/12/31 05:35:42;;;;;;;2.15;1.20;;;;;;;;;;5012428;28;20486;-70
2022/12/31 05:38:07;;;;;;;1.33;1.00;;;;;;;;;;4993869;28;20042;-70
2022/12/31 05:40:33;;;;;;;1.27;0.85;;;;;;;;;;5008267;28;20026;-68
2022/12/31 05:42:58;;;;;;;1.10;0.90;;;;;;;;;;4998415;28;20049;-71
2022/12/31 05:45:23;;;;;;;1.55;1.13;;;;;;;;;;5001535;28;20030;-69
2022/12/31 05:47:49;;;;;;;1.90;1.10;;;;;;;;;;5002004;28;20041;-70
2022/12/31 05:50:15;;;;;;;1.98;1.17;;;;;;;;;;5007252;28;20030;-70
2022/12/31 05:52:42;;;;;;;2.70;1.17;;;;;;;;;;4992432;28;20105;-70
2022/12/31 05:55:08;;;;;;;0.70;0.70;;;;;;;;;;5011658;28;20030;-70
2022/12/31 05:57:33;;;;;;;1.42;0.98;;;;;;;;;;5012221;28;20129;-70
2022/12/31 05:59:59;;;;;;;1.42;1.02;;;;;;;;;;4993981;28;20091;-71
2022/12/31 06:02:24;;;;;;;1.35;0.90;;;;;;;;;;4992718;28;20056;-70
2022/12/31 06:04:50;;;;;;;1.65;0.98;;;;;;;;;;5012379;28;20080;-70
2022/12/31 06:07:15;;;;;;;1.83;1.20;;;;;;;;;;5011357;28;20030;-70
2022/12/31 06:09:41;;;;;;;1.52;1.00;;;;;;;;;;4992482;28;20388;-70
2022/12/31 06:12:07;;;;;;;1.92;1.20;;;;;;;;;;5005689;28;20118;-70
2022/12/31 06:14:32;;;;;;;1.90;1.20;;;;;;;;;;4995126;28;20395;-69
2022/12/31 06:16:58;;;;;;;1.40;1.10;;;;;;;;;;5006371;28;20015;-69
2022/12/31 06:19:24;;;;;;;2.80;1.20;;;;;;;;;;5000332;28;20036;-70
2022/12/31 06:21:49;;;;;;;1.75;1.10;;;;;;;;;;5012030;28;20471;-70
2022/12/31 06:24:15;;;;;;;1.70;1.10;;;;;;;;;;5002720;28;20084;-69
2022/12/31 06:26:40;;;;;;;1.95;1.10;;;;;;;;;;4993798;28;20105;-69
2022/12/31 06:29:06;;;;;;;1.70;1.10;;;;;;;;;;5005842;28;20468;-70
2022/12/31 06:31:31;;;;;;;3.17;1.33;;;;;;;;;;5015778;28;20029;-69
2022/12/31 06:33:57;;;;;;;3.35;1.40;;;;;;;;;;5015598;28;20033;-70
2022/12/31 06:36:22;;;;;;;2.67;1.35;;;;;;;;;;5015321;28;20037;-70
2022/12/31 06:38:48;;;;;;;3.65;1.60;;;;;;;;;;4981065;28;20038;-68
2022/12/31 06:41:15;;;;;;;2.97;1.52;;;;;;;;;;5008754;28;20027;-69
2022/12/31 06:43:41;;;;;;;3.95;1.70;;;;;;;;;;5004759;28;20104;-70
2022/12/31 06:46:12;;;;;;;2.40;1.35;;;;;;;;;;5001671;28;20077;-70
2022/12/31 06:48:37;;;;;;;;;;;;;;;;;;5006234;28;20088;-70
2022/12/31 06:51:09;;;;;;;1.83;1.20;;;;;;;;;;5015427;28;19913;-70
2022/12/31 06:53:35;;;;;;;2.33;1.33;;;;;;;;;;5003404;28;20192;-71
2022/12/31 06:56:07;;;;;;;2.00;1.60;;;;;;;;;;4995737;28;20058;-70
2022/12/31 06:58:33;;;;;;;3.40;1.80;;;;;;;;;;5009566;28;20033;-70
2022/12/31 07:01:13;;;;;;;3.90;2.00;;;;;;;;;;5015050;28;20018;-70
2022/12/31 07:03:42;;;;;;;;;;;;;;;;;;4998026;28;20089;-70
2022/12/31 07:06:07;;;;;;;2.83;1.67;;;;;;;;;;4995596;28;20379;-70
2022/12/31 07:08:45;;;;;;;3.13;1.50;;;;;;;;;;5010669;28;20032;-70
2022/12/31 07:11:15;;;;;;;3.08;1.67;;;;;;;;;;4984696;28;20072;-70
2022/12/31 07:13:52;;;;;;;2.47;1.45;;;;;;;;;;5005809;28;20054;-69
2022/12/31 07:16:29;;;;;;;2.72;1.52;;;;;;;;;;5008757;28;20030;-70
2022/12/31 07:19:19;;;;;;;4.00;1.40;;;;;;;;;;5003034;28;20100;-70
2022/12/31 07:21:46;;;;;;;2.35;1.50;;;;;;;;;;4995250;28;20026;-70
2022/12/31 07:24:12;;;;;;;5.07;1.60;;;;;;;;;;5012305;28;20061;-70
2022/12/31 07:27:04;;;;;;;2.13;1.60;;;;;;;;;;5011777;28;20082;-71
2022/12/31 07:29:32;;;;;;;2.05;1.42;;;;;;;;;;5005804;28;20545;-71
2022/12/31 07:32:04;;;;;;;1.50;1.15;;;;;;;;;;5014574;28;20045;-70
2022/12/31 07:34:52;;;;;;;3.67;2.55;;;;;;;;;;5014570;28;20029;-70
2022/12/31 07:37:21;;;;;;;2.75;1.20;;;;;;;;;;4995751;28;20030;-70
2022/12/31 07:40:25;;;;;;;2.55;1.35;;;;;;;;;;5010271;28;20396;-70
2022/12/31 07:43:08;;;;;;;2.20;1.25;;;;;;;;;;5005281;28;20045;-70
2022/12/31 07:46:01;;;;;;;2.38;1.50;;;;;;;;;;4996437;28;20404;-70
2022/12/31 07:48:28;;;;;;;2.15;1.45;;;;;;;;;;4975104;28;20391;-69
2022/12/31 07:50:55;;;;;;;2.65;1.52;;;;;;;;;;4982441;28;20024;-71
2022/12/31 07:53:23;;;;;;;2.45;1.23;;;;;;;;;;5009721;28;20075;-70
2022/12/31 07:55:54;;;;;;;2.30;1.67;;;;;;;;;;4999769;28;20030;-70
2022/12/31 07:58:35;;;;;;;4.72;1.60;;;;;;;;;;5002200;28;20380;-70
2022/12/31 08:01:02;;;;;;;4.95;1.40;;;;;;;;;;5010054;28;20079;-70
2022/12/31 08:03:49;;;;;;;4.75;1.90;;;;;;;;;;4994496;28;20062;-70
2022/12/31 08:06:58;;;;;;;2.58;1.60;;;;;;;;;;4998734;28;20037;-69
2022/12/31 08:09:36;;;;;;;2.10;1.50;;;;;;;;;;4953386;29;20070;-70
2022/12/31 08:12:02;;;;;;;2.15;1.55;;;;;;;;;;4938042;29;20066;-69
2022/12/31 08:14:29;;;;;;;3.30;1.40;;;;;;;;;;4943912;29;20102;-70
2022/12/31 08:16:55;;;;;;;2.50;1.42;;;;;;;;;;4953249;29;20039;-70
2022/12/31 08:19:27;;;;;;;2.30;1.40;;;;;;;;;;4942168;29;20467;-70
2022/12/31 08:22:26;;;;;;;2.50;1.70;;;;;;;;;;4938122;29;20114;-70
2022/12/31 08:24:57;;;;;;;2.10;1.50;;;;;;;;;;4953141;29;20032;-70
2022/12/31 08:27:56;;;;;;;2.70;1.63;;;;;;;;;;4941338;29;20058;-70
2022/12/31 08:30:27;;;;;;;1.90;1.40;;;;;;;;;;4934968;29;20075;-69
2022/12/31 08:33:10;;;;;;;1.90;1.50;;;;;;;;;;4953251;28;20469;-70
2022/12/31 08:36:10;;;;;;;4.30;1.55;;;;;;;;;;4943302;29;20600;-71
2022/12/31 08:38:51;;;;;;;3.75;1.92;;;;;;;;;;4933424;29;20404;-70
2022/12/31 08:41:30;;;;;;;3.42;1.98;;;;;;;;;;4952520;28;20043;-70
2022/12/31 08:44:00;;;;;;;3.10;2.00;;;;;;;;;;4993726;28;20047;-70
2022/12/31 08:46:45;;;;;;;5.68;2.70;;;;;;;;;;4981999;28;20100;-71
2022/12/31 08:49:13;;;;;;;3.80;3.08;;;;;;;;;;4991169;28;20037;-71
2022/12/31 08:51:39;;;;;;;6.03;3.97;;;;;;;;;;4980309;28;20034;-70
2022/12/31 08:54:05;;;;;;;2.97;2.60;;;;;;;;;;4983714;28;20031;-70
2022/12/31 08:56:39;;;;;;;2.92;2.28;;;;;;;;;;4983122;28;20037;-70
2022/12/31 08:59:10;;;;;;;2.95;1.98;;;;;;;;;;4983896;28;20045;-70
2022/12/31 09:01:57;;;;;;;3.35;2.67;;;;;;;;;;4984470;28;20117;-70
2022/12/31 09:04:54;;;;;;;3.67;2.80;;;;;;;;;;4983889;28;20026;-70
2022/12/31 09:07:30;;;;;;;5.25;3.13;;;;;;;;;;4977676;28;20425;-69
2022/12/31 09:10:05;;;;;;;4.97;3.03;;;;;;;;;;4982381;28;20027;-70
2022/12/31 09:12:48;;;;;;;5.13;3.30;;;;;;;;;;4983095;28;20101;-70
2022/12/31 09:15:30;;;;;;;5.35;3.00;;;;;;;;;;4986246;28;20033;-70
2022/12/31 09:17:56;;;;;;;4.88;3.70;;;;;;;;;;4986049;28;20029;-70
2022/12/31 09:20:21;;;;;;;3.85;2.80;;;;;;;;;;4984751;28;20027;-70
2022/12/31 09:22:47;;;;;;;3.40;2.83;;;;;;;;;;4984113;28;20029;-70
2022/12/31 09:25:18;;;;;;;5.03;3.10;;;;;;;;;;4986113;28;20019;-70
2022/12/31 09:28:10;;;;;;;5.25;3.40;;;;;;;;;;4986672;28;20015;-70
2022/12/31 09:31:12;;;;;;;4.22;3.55;;;;;;;;;;4983453;28;20117;-71
2022/12/31 09:33:38;;;;;;;4.28;2.50;;;;;;;;;;4980360;28;20128;-71
2022/12/31 09:36:11;;;;;;;3.95;2.75;;;;;;;;;;4979814;28;20125;-69
2022/12/31 09:38:51;;;;;;;4.00;2.78;;;;;;;;;;4976380;28;20356;-70
2022/12/31 09:41:48;;;;;;;3.58;2.83;;;;;;;;;;4971495;28;20031;-71
2022/12/31 09:44:17;;;;;;;3.17;2.55;;;;;;;;;;4967242;28;20117;-71
2022/12/31 09:47:19;;;;;;;3.85;3.00;;;;;;;;;;4971495;28;20030;-70
2022/12/31 09:49:56;;;;;;;5.43;3.10;;;;;;;;;;4983371;28;20054;-70
2022/12/31 09:52:42;;;;;;;4.00;3.13;;;;;;;;;;4990778;28;20487;-71
2022/12/31 09:55:11;;;;;;;3.40;2.67;;;;;;;;;;4990773;28;20054;-70
2022/12/31 09:58:00;;;;;;;4.13;2.40;;;;;;;;;;4990961;28;20026;-71
2022/12/31 10:00:50;;;;;;;2.35;2.10;;;;;;;;;;4992079;28;20036;-71
2022/12/31 10:03:34;;;;;;;2.50;2.00;;;;;;;;;;4994771;28;20046;-71
2022/12/31 10:06:14;;;;;;;2.35;1.77;;;;;;;;;;4994741;28;20038;-71
2022/12/31 10:08:46;;;;;;;2.50;1.90;;;;;;;;;;4986018;28;20048;-70
2022/12/31 10:11:24;;;;;;;3.17;2.08;;;;;;;;;;4979037;28;20062;-70
2022/12/31 10:14:11;;;;;;;2.70;2.20;;;;;;;;;;4985068;28;20028;-71
2022/12/31 10:17:08;;;;;;;3.95;2.55;;;;;;;;;;4996548;28;20034;-71
2022/12/31 10:19:56;;;;;;;2.40;2.20;;;;;;;;;;4994550;28;20042;-71
2022/12/31 10:23:13;;;;;;;2.60;2.30;;;;;;;;;;4994650;28;20049;-70
2022/12/31 10:26:03;;;;;;;2.60;2.33;;;;;;;;;;4967751;28;20050;-71
2022/12/31 10:28:54;;;;;;;2.60;2.20;;;;;;;;;;4974779;28;20058;-71
2022/12/31 10:31:22;;;;;;;2.38;1.92;;;;;;;;;;4991329;28;20088;-70
2022/12/31 10:34:06;;;;;;;3.25;2.25;;;;;;;;;;4994153;28;20493;-70
2022/12/31 10:37:05;;;;;;;3.03;2.50;;;;;;;;;;4994215;28;20042;-70
2022/12/31 10:40:18;;;;;;;2.90;2.53;;;;;;;;;;4994266;28;20038;-70
2022/12/31 10:43:19;;;;;;;3.40;2.85;;;;;;;;;;4993784;28;20046;-71
2022/12/31 10:46:16;;;;;;;4.53;3.40;;;;;;;;;;4993770;28;20539;-70
2022/12/31 10:48:56;;;;;;;5.00;3.58;;;;;;;;;;4994070;28;20120;-71
2022/12/31 10:51:39;;;;;;;;;;;;;;;;;;4994517;28;20559;-71
2022/12/31 10:54:35;;;;;;;4.30;3.20;;;;;;;;;;4992095;28;19956;-71
2022/12/31 10:57:32;;;;;;;4.35;3.33;;;;;;;;;;4982434;28;20129;-71
2022/12/31 11:00:02;;;;;;;4.43;3.95;;;;;;;;;;4987797;28;20464;-69
2022/12/31 11:03:02;;;;;;;4.40;3.93;;;;;;;;;;4992903;28;20414;-70
2022/12/31 11:06:06;;;;;;;3.78;3.17;;;;;;;;;;4968256;28;20279;-70
2022/12/31 11:08:50;;;;;;;3.63;2.70;;;;;;;;;;4958183;28;20066;-69
2022/12/31 11:11:57;;;;;;;4.13;3.35;;;;;;;;;;4965654;28;20037;-69
2022/12/31 11:15:01;;;;;;;3.95;2.80;;;;;;;;;;4895864;29;20049;-70
2022/12/31 11:17:57;;;;;;;3.10;2.75;;;;;;;;;;4858847;29;20046;-68
2022/12/31 11:20:40;;;;;;;3.17;2.60;;;;;;;;;;4857239;29;20458;-70
2022/12/31 11:23:36;;;;;;;4.55;2.80;;;;;;;;;;4860105;29;20442;-68
2022/12/31 11:26:26;;;;;;;3.85;2.70;;;;;;;;;;4859885;29;20041;-67
2022/12/31 11:29:23;;;;;;;4.63;2.83;;;;;;;;;;4859845;29;20497;-68
2022/12/31 11:32:05;;;;;;;4.03;2.65;;;;;;;;;;4860171;29;20038;-67
2022/12/31 11:34:36;;;;;;;4.35;2.70;;;;;;;;;;4860199;29;20090;-68
2022/12/31 11:37:14;;;;;;;3.97;2.10;;;;;;;;;;4860084;29;20040;-68
2022/12/31 11:39:58;;;;;;;2.85;1.73;;;;;;;;;;4859863;29;20248;-68
2022/12/31 11:42:58;;;;;;;2.05;1.40;;;;;;;;;;4878386;29;20122;-68
2022/12/31 11:45:51;;;;;;;1.85;1.05;;;;;;;;;;4878164;29;20104;-68
2022/12/31 11:48:40;;;;;;;2.00;1.30;;;;;;;;;;4882969;29;20060;-68
2022/12/31 11:51:08;;;;;;;1.65;0.85;;;;;;;;;;4906450;29;20040;-70
2022/12/31 11:53:44;;;;;;;1.60;1.00;;;;;;;;;;4993129;28;20499;-68
2022/12/31 11:56:17;;;;;;;2.85;1.30;;;;;;;;;;4984691;28;20133;-69
2022/12/31 11:58:51;;;;;;;2.40;1.00;;;;;;;;;;5014306;28;20447;-68
2022/12/31 12:01:22;;;;;;;3.40;1.17;;;;;;;;;;5014476;28;20486;-68
2022/12/31 12:03:48;;;;;;;4.45;1.33;;;;;;;;;;5012550;28;20395;-68
2022/12/31 12:06:22;;;;;;;3.70;1.20;;;;;;;;;;4994608;28;20038;-69
2022/12/31 12:08:48;;;;;;;3.58;1.23;;;;;;;;;;4994582;28;20084;-68
2022/12/31 12:11:24;;;;;;;2.17;1.20;;;;;;;;;;4994621;28;20026;-69
2022/12/31 12:13:49;;;;;;;2.83;1.42;;;;;;;;;;4994444;28;20395;-69
2022/12/31 12:16:15;;;;;;;2.35;1.00;;;;;;;;;;4994670;28;20026;-68
2022/12/31 12:19:05;;;;;;;2.72;1.42;;;;;;;;;;4994519;28;20038;-66
2022/12/31 12:21:31;;;;;;;2.40;1.30;;;;;;;;;;4994707;28;20094;-70
2022/12/31 12:24:03;;;;;;;2.40;1.30;;;;;;;;;;4994160;28;20038;-69
2022/12/31 12:26:48;;;;;;;2.65;1.10;;;;;;;;;;4994063;28;20062;-69
2022/12/31 12:29:18;;;;;;;1.90;0.88;;;;;;;;;;5002527;28;20049;-69
2022/12/31 12:32:17;;;;;;;1.38;0.95;;;;;;;;;;5013688;28;20486;-69
2022/12/31 12:34:42;;;;;;;1.85;0.90;;;;;;;;;;5009745;28;20042;-69
2022/12/31 12:37:23;;;;;;;2.28;0.85;;;;;;;;;;5013942;28;20105;-70
2022/12/31 12:40:03;;;;;;;0.77;0.60;;;;;;;;;;5012125;28;20026;-69
2022/12/31 12:42:29;;;;;;;1.70;0.90;;;;;;;;;;5011278;28;20053;-69
2022/12/31 12:45:03;;;;;;;1.38;0.90;;;;;;;;;;5011725;28;20018;-69
2022/12/31 12:47:29;;;;;;;2.38;1.00;;;;;;;;;;5011702;28;20547;-69
2022/12/31 12:49:55;;;;;;;1.88;0.90;;;;;;;;;;5012509;28;20091;-70
2022/12/31 12:52:30;;;;;;;1.40;0.80;;;;;;;;;;5012295;28;20029;-70
2022/12/31 12:55:13;;;;;;;1.63;1.00;;;;;;;;;;5013229;28;20030;-69
2022/12/31 12:58:12;;;;;;;1.70;1.05;;;;;;;;;;5013335;28;20037;-69
2022/12/31 13:00:46;;;;;;;1.65;0.95;;;;;;;;;;5013417;28;20030;-70
2022/12/31 13:03:23;;;;;;;2.60;1.00;;;;;;;;;;5013300;28;20033;-69
2022/12/31 13:06:04;;;;;;;1.10;0.80;;;;;;;;;;5013071;28;20455;-69
2022/12/31 13:08:48;;;;;;;0.88;0.80;;;;;;;;;;5013258;28;20109;-69
2022/12/31 13:11:25;;;;;;;1.30;0.70;;;;;;;;;;5013091;28;20034;-69
2022/12/31 13:14:16;;;;;;;1.30;0.77;;;;;;;;;;5013377;28;20038;-70
2022/12/31 13:17:07;;;;;;;1.60;0.80;;;;;;;;;;5013017;28;20040;-68
2022/12/31 13:19:59;;;;;;;2.33;0.90;;;;;;;;;;5013245;28;20030;-69
2022/12/31 13:22:41;;;;;;;2.05;0.98;;;;;;;;;;5010043;28;20172;-69
2022/12/31 13:25:25;;;;;;;3.45;0.90;;;;;;;;;;5012785;28;20030;-69
2022/12/31 13:27:54;;;;;;;1.27;1.00;;;;;;;;;;5012492;28;20037;-69
2022/12/31 13:30:30;;;;;;;3.03;0.80;;;;;;;;;;5012889;28;20029;-69
2022/12/31 13:33:02;;;;;;;1.10;0.82;;;;;;;;;;5012992;28;20032;-69
2022/12/31 13:35:40;;;;;;;0.90;0.70;;;;;;;;;;5012489;28;20022;-69
2022/12/31 13:38:22;;;;;;;1.70;0.70;;;;;;;;;;5012968;28;20554;-70
2022/12/31 13:40:51;;;;;;;0.88;0.63;;;;;;;;;;5012767;28;20026;-69
2022/12/31 13:43:42;;;;;;;0.93;0.63;;;;;;;;;;5012675;28;20048;-69
2022/12/31 13:46:22;;;;;;;0.68;0.50;;;;;;;;;;5012588;28;20295;-69
2022/12/31 13:49:08;;;;;;;;;;;;;;;;;;5013127;28;20041;-69
2022/12/31 13:51:42;;;;;;;0.80;0.45;;;;;;;;;;5005361;28;20315;-69
2022/12/31 13:54:32;;;;;;;0.52;0.43;;;;;;;;;;5012497;28;20053;-68
2022/12/31 13:57:03;;;;;;;1.08;0.88;;;;;;;;;;5012848;28;20061;-69
2022/12/31 13:59:35;;;;;;;1.25;0.50;;;;;;;;;;5012822;28;20026;-69
2022/12/31 14:02:18;;;;;;;1.13;0.40;;;;;;;;;;5012662;28;20511;-69
2022/12/31 14:04:51;;;;;;;0.35;0.30;;;;;;;;;;5012712;28;20037;-69
2022/12/31 14:07:30;;;;;;;0.95;0.40;;;;;;;;;;5011254;28;20386;-69
2022/12/31 14:09:56;;;;;;;0.45;0.40;;;;;;;;;;5012428;28;20518;-69
2022/12/31 14:13:03;;;;;;;0.55;0.40;;;;;;;;;;5012638;28;20038;-69
2022/12/31 14:15:51;;;;;;;0.75;0.43;;;;;;;;;;5012604;28;20026;-69
2022/12/31 14:18:39;;;;;;;0.50;0.32;;;;;;;;;;5012261;28;20092;-69
2022/12/31 14:21:22;;;;;;;0.60;0.40;;;;;;;;;;5012343;28;20034;-69
2022/12/31 14:23:59;;;;;;;0.22;0.22;;;;;;;;;;5012134;28;20087;-69
2022/12/31 14:26:42;;;;;;;0.38;0.35;;;;;;;;;;5012287;28;20034;-69
2022/12/31 14:29:11;;;;;;;0.75;0.50;;;;;;;;;;5012322;28;20030;-69
2022/12/31 14:31:48;;;;;;;0.40;0.40;;;;;;;;;;5012372;28;20032;-69
2022/12/31 14:34:14;;;;;;;0.52;0.40;;;;;;;;;;5012286;28;20479;-69
2022/12/31 14:36:42;;;;;;;1.65;0.50;;;;;;;;;;5012195;28;20052;-69
2022/12/31 14:39:08;;;;;;;0.43;0.40;;;;;;;;;;5012028;28;20460;-69
2022/12/31 14:41:59;;;;;;;0.43;0.40;;;;;;;;;;5012335;28;20029;-69
2022/12/31 14:44:52;;;;;;;0.85;0.40;;;;;;;;;;5012154;28;20038;-71
2022/12/31 14:47:32;;;;;;;0.70;0.40;;;;;;;;;;5012905;28;20048;-69
2022/12/31 14:50:09;;;;;;;0.38;0.32;;;;;;;;;;5016099;28;20145;-69
2022/12/31 14:52:49;;;;;;;0.30;0.30;;;;;;;;;;5015502;28;20032;-69
2022/12/31 14:55:27;;;;;;;0.57;0.40;;;;;;;;;;5015775;28;20072;-69
2022/12/31 14:57:55;;;;;;;0.73;0.60;;;;;;;;;;5015717;28;20075;-69
2022/12/31 15:00:37;;;;;;;1.58;0.80;;;;;;;;;;5015800;28;20026;-69
2022/12/31 15:03:14;;;;;;;1.25;0.63;;;;;;;;;;5015430;28;20044;-69
2022/12/31 15:05:53;;;;;;;1.25;0.82;;;;;;;;;;5015333;28;20489;-69
2022/12/31 15:08:28;;;;;;;2.33;0.90;;;;;;;;;;5015317;28;20522;-70
2022/12/31 15:11:12;;;;;;;1.00;0.68;;;;;;;;;;5015451;28;20079;-69
2022/12/31 15:14:05;;;;;;;1.27;0.50;;;;;;;;;;5015395;28;20483;-69
2022/12/31 15:17:00;;;;;;;2.45;0.90;;;;;;;;;;5015259;28;20053;-69
2022/12/31 15:19:44;;;;;;;1.40;0.80;;;;;;;;;;5015396;28;20057;-69
2022/12/31 15:22:18;;;;;;;0.73;0.60;;;;;;;;;;5015029;28;20101;-69
2022/12/31 15:24:46;;;;;;;1.00;0.60;;;;;;;;;;5015099;28;20045;-69
2022/12/31 15:27:44;;;;;;;0.50;0.50;;;;;;;;;;5015120;28;20026;-69
2022/12/31 15:30:46;;;;;;;1.42;0.80;;;;;;;;;;5010728;28;20045;-69
2022/12/31 15:33:25;;;;;;;0.73;0.50;;;;;;;;;;4993496;28;20038;-69
2022/12/31 15:35:54;;;;;;;0.65;0.52;;;;;;;;;;4977016;28;20062;-69
2022/12/31 15:38:28;;;;;;;0.50;0.50;;;;;;;;;;4993648;28;20057;-69
2022/12/31 15:40:54;;;;;;;1.70;0.80;;;;;;;;;;4993469;28;20516;-69